Time;durP1;ratioP1;P1;durP2;ratioP2;P2;SDS_P1;SDS_P2;PMS_P1;PMS_P2;Temp;Humidity;BMP_temperature;BMP_pressure;BME280_temperature;BME280_humidity;BME280_pressure;Samples;Min_cycle;Max_cycle;Signal;HPM_P1;HPM_P2
2023/07/17 00:01:37;;;;;;;7.90;3.95;;;15.40;99.90;;;15.74;100.00;100708.22;4990416;28;20038;-78
2023/07/17 00:04:04;;;;;;;8.00;3.90;;;15.50;99.90;;;15.63;100.00;100702.53;5004905;28;20045;-78
2023/07/17 00:06:29;;;;;;;8.68;3.75;;;15.50;99.90;;;15.69;100.00;100703.47;4984137;28;20053;-77
2023/07/17 00:08:55;;;;;;;7.00;3.45;;;15.50;99.90;;;16.54;100.00;100699.75;4990895;28;20038;-78
2023/07/17 00:11:21;;;;;;;6.45;3.92;;;15.50;99.90;;;16.13;100.00;100708.28;4982392;28;20402;-77
2023/07/17 00:13:47;;;;;;;7.30;3.92;;;15.60;99.90;;;16.00;100.00;100719.66;4975035;28;20101;-78
2023/07/17 00:16:13;;;;;;;7.35;3.53;;;15.70;99.90;;;15.79;100.00;100711.03;4973522;28;20031;-78
2023/07/17 00:18:38;;;;;;;8.32;3.95;;;15.70;99.90;;;15.73;100.00;100712.06;4978024;28;20070;-77
2023/07/17 00:21:05;;;;;;;6.53;3.67;;;15.60;99.90;;;15.78;100.00;100709.38;4984881;28;20081;-77
2023/07/17 00:23:31;;;;;;;8.25;3.92;;;15.60;99.90;;;15.71;100.00;100708.72;4990500;28;20049;-77
2023/07/17 00:25:58;;;;;;;6.88;4.10;;;15.60;99.90;;;16.61;100.00;100714.19;4985712;28;20113;-77
2023/07/17 00:28:24;;;;;;;7.85;3.85;;;15.60;99.90;;;16.95;100.00;100721.47;4994639;28;20118;-77
2023/07/17 00:30:50;;;;;;;6.97;3.92;;;15.60;99.90;;;17.05;100.00;100726.28;4986752;28;20038;-77
2023/07/17 00:33:16;;;;;;;7.93;3.83;;;15.50;99.90;;;17.10;100.00;100721.69;4990355;28;20038;-77
2023/07/17 00:35:42;;;;;;;7.60;3.88;;;15.50;99.90;;;17.15;100.00;100728.34;4989362;28;20034;-77
2023/07/17 00:38:07;;;;;;;9.77;4.80;;;15.50;99.90;;;16.27;100.00;100716.19;4985263;28;20078;-77
2023/07/17 00:40:36;;;;;;;7.15;3.63;;;15.50;99.90;;;16.99;100.00;100716.31;4980307;28;20031;-77
2023/07/17 00:43:09;;;;;;;7.30;3.95;;;15.50;99.90;;;17.15;100.00;100725.56;4985028;28;20081;-77
2023/07/17 00:45:35;;;;;;;7.18;4.13;;;15.40;99.90;;;17.18;100.00;100733.31;4983281;28;20031;-77
2023/07/17 00:48:03;;;;;;;8.63;3.92;;;15.40;99.90;;;17.01;100.00;100734.25;4988238;28;20561;-77
2023/07/17 00:50:29;;;;;;;9.25;4.22;;;15.60;99.90;;;17.01;100.00;100738.94;4996060;28;20093;-77
2023/07/17 00:52:56;;;;;;;10.93;4.30;;;15.70;99.90;;;17.18;100.00;100739.69;4980140;28;20101;-77
2023/07/17 00:55:22;;;;;;;8.63;4.38;;;15.80;99.90;;;17.23;100.00;100745.25;4989742;28;20039;-77
2023/07/17 00:57:52;;;;;;;7.18;4.05;;;15.70;99.90;;;16.49;100.00;100744.59;4981485;28;20054;-77
2023/07/17 01:00:23;;;;;;;8.05;4.00;;;15.70;99.90;;;17.23;100.00;100741.63;4982996;28;20109;-77
2023/07/17 01:02:52;;;;;;;7.65;4.00;;;15.60;99.90;;;17.30;100.00;100747.81;4983003;28;20508;-77
2023/07/17 01:05:18;;;;;;;7.10;4.10;;;15.50;99.90;;;17.15;100.00;100723.66;4989723;28;20038;-77
2023/07/17 01:07:45;;;;;;;6.78;4.72;;;15.50;99.90;;;17.17;100.00;100737.16;4990482;28;20108;-77
2023/07/17 01:10:11;;;;;;;7.93;4.25;;;15.40;99.90;;;17.10;100.00;100734.59;4989611;28;20032;-77
2023/07/17 01:12:37;;;;;;;8.27;4.45;;;15.30;99.90;;;16.98;100.00;100737.53;4987949;28;20049;-76
2023/07/17 01:15:06;;;;;;;7.85;4.40;;;15.20;99.90;;;16.83;100.00;100740.88;5000628;28;20027;-77
2023/07/17 01:17:33;;;;;;;7.72;4.47;;;15.00;99.90;;;16.76;100.00;100740.25;4973788;28;20483;-77
2023/07/17 01:19:59;;;;;;;9.57;4.70;;;15.00;99.90;;;16.49;100.00;100733.59;4989231;28;20137;-77
2023/07/17 01:22:33;;;;;;;10.15;4.80;;;14.80;99.90;;;16.30;100.00;100733.03;4977851;28;20447;-77
2023/07/17 01:24:58;;;;;;;9.02;4.50;;;14.70;99.90;;;16.36;100.00;100732.03;4989368;28;20040;-77
2023/07/17 01:27:24;;;;;;;8.85;4.75;;;14.70;99.90;;;16.37;100.00;100728.19;4982705;28;20038;-77
2023/07/17 01:29:50;;;;;;;9.38;4.95;;;14.60;99.90;;;16.36;100.00;100732.03;4962300;28;20129;-77
2023/07/17 01:32:19;;;;;;;8.73;4.03;;;14.60;99.90;;;16.59;100.00;100734.81;4973072;28;20046;-77
2023/07/17 01:34:45;;;;;;;8.80;4.63;;;14.70;99.90;;;16.75;100.00;100739.44;4986442;28;20109;-77
2023/07/17 01:37:11;;;;;;;8.27;4.50;;;14.80;99.90;;;16.75;100.00;100730.31;4983949;28;20558;-77
2023/07/17 01:39:37;;;;;;;6.93;4.38;;;14.90;99.90;;;16.75;100.00;100725.66;4976812;28;20030;-77
2023/07/17 01:42:03;;;;;;;7.72;4.32;;;15.00;99.90;;;16.85;100.00;100729.63;4988327;28;20038;-77
2023/07/17 01:44:30;;;;;;;7.85;4.53;;;15.00;99.90;;;16.85;100.00;100738.72;4978849;28;20567;-76
2023/07/17 01:46:56;;;;;;;8.13;4.13;;;15.00;99.90;;;16.85;100.00;100727.72;4982325;28;20058;-76
2023/07/17 01:49:22;;;;;;;7.93;4.70;;;15.00;99.90;;;16.87;100.00;100719.16;4975091;28;20030;-76
2023/07/17 01:51:48;;;;;;;11.77;4.97;;;15.00;99.90;;;16.90;100.00;100722.25;5002868;28;20046;-77
2023/07/17 01:54:13;;;;;;;8.82;4.55;;;15.00;99.90;;;16.94;100.00;100717.03;4995260;28;20037;-77
2023/07/17 01:56:39;;;;;;;9.77;5.25;;;15.10;99.90;;;16.99;100.00;100711.66;5004560;28;20513;-77
2023/07/17 01:59:05;;;;;;;7.18;4.40;;;15.10;99.90;;;17.06;100.00;100715.03;4995730;28;20034;-77
2023/07/17 02:01:33;;;;;;;7.72;4.38;;;15.20;99.90;;;17.13;100.00;100716.72;5010698;28;20038;-77
2023/07/17 02:04:02;;;;;;;8.63;4.60;;;15.30;99.90;;;17.11;100.00;100719.78;5000021;28;20092;-77
2023/07/17 02:06:28;;;;;;;9.05;4.40;;;15.30;99.90;;;16.10;100.00;100715.16;5000109;28;20061;-75
2023/07/17 02:08:55;;;;;;;6.75;4.55;;;15.40;99.90;;;15.58;100.00;100707.94;5000467;28;20054;-76
2023/07/17 02:11:26;;;;;;;9.32;4.88;;;15.40;99.90;;;15.47;100.00;100700.63;4998402;28;20042;-76
2023/07/17 02:13:53;;;;;;;6.70;4.10;;;15.40;99.90;;;15.37;100.00;100704.03;5012244;28;20074;-77
2023/07/17 02:16:19;;;;;;;9.65;4.35;;;15.30;99.90;;;15.36;100.00;100713.34;4995146;28;20112;-77
2023/07/17 02:18:44;;;;;;;8.52;4.68;;;15.30;99.90;;;15.40;100.00;100706.28;4973451;28;20081;-77
2023/07/17 02:21:10;;;;;;;9.30;4.65;;;15.30;99.90;;;15.46;100.00;100710.78;4987813;28;20086;-77
2023/07/17 02:23:36;;;;;;;8.90;4.90;;;15.40;99.90;;;15.56;100.00;100703.81;4983565;28;20039;-78
2023/07/17 02:26:03;;;;;;;8.85;4.88;;;15.40;99.90;;;15.36;100.00;100700.44;4993789;28;20042;-78
2023/07/17 02:28:29;;;;;;;8.98;4.15;;;15.40;99.90;;;15.41;100.00;100691.44;4986883;28;20045;-78
2023/07/17 02:30:56;;;;;;;8.95;4.95;;;15.40;99.90;;;16.08;100.00;100706.31;4983105;28;20034;-77
2023/07/17 02:33:22;;;;;;;7.05;4.50;;;15.50;99.90;;;15.47;100.00;100690.44;4984951;28;20043;-77
2023/07/17 02:35:48;;;;;;;7.97;4.30;;;15.50;99.90;;;15.56;100.00;100701.88;5006027;28;20065;-77
2023/07/17 02:38:14;;;;;;;8.50;5.00;;;15.50;99.90;;;15.99;100.00;100707.81;4990311;28;20042;-78
2023/07/17 02:40:40;;;;;;;8.27;4.35;;;15.50;99.90;;;15.63;100.00;100710.78;4986846;28;20030;-77
2023/07/17 02:43:07;;;;;;;7.75;4.35;;;15.50;99.90;;;15.46;100.00;100718.19;4992386;28;20097;-77
2023/07/17 02:45:33;;;;;;;11.35;4.63;;;15.40;99.90;;;15.53;100.00;100721.63;4983792;28;20121;-77
2023/07/17 02:47:59;;;;;;;7.63;4.53;;;15.40;99.90;;;15.42;100.00;100712.34;4988520;28;20537;-76
2023/07/17 02:50:25;;;;;;;7.78;4.85;;;15.40;99.90;;;16.69;100.00;100712.88;4992931;28;20105;-77
2023/07/17 02:52:51;;;;;;;7.47;4.32;;;15.20;99.90;;;16.71;100.00;100721.75;4990883;28;20478;-77
2023/07/17 02:55:17;;;;;;;8.18;4.35;;;15.00;99.90;;;16.60;100.00;100723.53;4963392;28;21096;-77
2023/07/17 02:57:44;;;;;;;8.55;5.00;;;14.90;99.90;;;16.28;100.00;100734.38;4975932;28;20042;-78
2023/07/17 03:00:12;;;;;;;10.38;5.10;;;14.70;99.90;;;16.31;100.00;100744.88;5006624;28;20031;-77
2023/07/17 03:02:40;;;;;;;9.93;4.63;;;14.70;99.90;;;16.41;100.00;100738.69;4990813;28;20450;-78
2023/07/17 03:05:10;;;;;;;10.57;5.00;;;14.70;99.90;;;16.43;100.00;100744.78;4990787;28;20113;-77
2023/07/17 03:07:43;;;;;;;8.70;4.57;;;14.60;99.90;;;16.37;100.00;100752.97;4986776;28;20117;-77
2023/07/17 03:10:11;;;;;;;7.13;4.18;;;14.60;99.90;;;16.45;100.00;100742.59;4966232;28;20073;-77
2023/07/17 03:12:37;;;;;;;9.82;4.60;;;14.60;99.90;;;16.52;100.00;100746.84;4988053;28;20697;-78
2023/07/17 03:15:05;;;;;;;6.75;4.40;;;14.70;99.90;;;16.59;100.00;100741.16;4989902;28;20030;-77
2023/07/17 03:17:32;;;;;;;10.65;4.63;;;14.80;99.90;;;16.72;100.00;100739.94;4981186;28;20043;-77
2023/07/17 03:19:59;;;;;;;9.18;4.38;;;14.90;99.90;;;16.77;100.00;100742.75;4983230;28;20038;-77
2023/07/17 03:22:26;;;;;;;8.85;4.38;;;15.00;99.90;;;16.78;100.00;100747.19;4983833;28;20042;-77
2023/07/17 03:24:53;;;;;;;8.15;4.57;;;15.10;99.90;;;16.93;100.00;100748.44;4991080;28;20041;-78
2023/07/17 03:27:19;;;;;;;9.57;4.43;;;15.20;99.90;;;16.86;100.00;100772.59;4990859;28;20062;-77
2023/07/17 03:29:48;;;;;;;9.65;4.43;;;15.20;99.90;;;16.65;100.00;100795.22;4979935;28;20078;-77
2023/07/17 03:32:14;;;;;;;7.25;4.28;;;15.40;99.90;;;16.73;100.00;100807.72;5004970;28;20058;-77
2023/07/17 03:34:39;;;;;;;7.00;4.70;;;15.50;99.90;;;16.99;100.00;100790.72;4990337;28;20049;-77
2023/07/17 03:37:05;;;;;;;7.65;4.00;;;15.60;99.90;;;17.10;100.00;100781.47;4978356;28;20038;-77
2023/07/17 03:39:31;;;;;;;6.53;4.43;;;15.50;99.90;;;17.15;100.00;100791.72;4979191;28;20422;-77
2023/07/17 03:41:57;;;;;;;7.63;4.63;;;15.50;99.90;;;17.11;100.00;100796.94;4990937;28;20113;-76
2023/07/17 03:44:22;;;;;;;7.80;4.57;;;15.40;99.90;;;17.06;100.00;100791.34;4989187;28;20039;-77
2023/07/17 03:46:49;;;;;;;9.07;4.70;;;15.30;99.90;;;17.06;100.00;100800.47;4979789;28;20043;-77
2023/07/17 03:49:16;;;;;;;8.77;4.82;;;15.30;99.90;;;16.90;100.00;100806.81;4983310;28;20089;-77
2023/07/17 03:51:41;;;;;;;9.18;4.90;;;15.40;99.90;;;17.00;100.00;100803.41;4987402;28;20406;-76
2023/07/17 03:54:08;;;;;;;8.05;4.47;;;15.50;99.90;;;17.21;100.00;100812.75;4987972;28;20027;-77
2023/07/17 03:56:35;;;;;;;8.88;4.30;;;15.60;99.90;;;17.31;100.00;100804.59;5003233;28;20137;-77
2023/07/17 03:59:03;;;;;;;7.15;4.20;;;15.60;99.90;;;17.44;100.00;100788.75;4984264;28;20052;-78
2023/07/17 04:01:29;;;;;;;7.05;3.83;;;15.80;99.90;;;17.62;100.00;100798.56;4986128;28;20045;-77
2023/07/17 04:03:55;;;;;;;8.48;4.53;;;16.10;99.90;;;17.89;100.00;100786.69;4991363;28;20038;-77
2023/07/17 04:06:21;;;;;;;13.88;4.13;;;16.40;99.90;;;18.31;100.00;100785.13;4985183;28;20045;-77
2023/07/17 04:08:47;;;;;;;8.50;4.05;;;16.70;99.90;;;18.58;100.00;100787.75;4974400;28;20033;-77
2023/07/17 04:11:14;;;;;;;9.55;3.83;;;16.90;99.90;;;18.55;100.00;100791.06;4993603;28;20031;-76
2023/07/17 04:13:40;;;;;;;8.70;3.70;;;16.90;99.90;;;18.58;100.00;100789.72;4981210;28;20073;-80
2023/07/17 04:16:06;;;;;;;7.07;4.25;;;16.80;99.90;;;18.45;100.00;100797.34;4970724;28;20856;-78
2023/07/17 04:18:32;;;;;;;7.35;4.05;;;16.70;99.90;;;18.39;100.00;100798.44;4982760;28;20039;-77
2023/07/17 04:20:59;;;;;;;8.97;3.87;;;16.70;99.90;;;18.36;100.00;100796.19;4977345;28;20030;-81
2023/07/17 04:23:25;;;;;;;8.27;4.18;;;16.70;99.90;;;18.41;100.00;100796.22;4987897;28;20038;-78
2023/07/17 04:25:55;;;;;;;6.15;3.65;;;16.90;99.90;;;18.55;100.00;100800.16;4988608;28;20066;-79
2023/07/17 04:28:22;;;;;;;12.50;3.72;;;17.10;99.90;;;18.78;100.00;100811.09;4976808;28;20035;-80
2023/07/17 04:30:49;;;;;;;6.30;3.53;;;17.30;99.90;;;19.03;100.00;100809.59;4989601;28;20045;-79
2023/07/17 04:33:15;;;;;;;8.30;3.95;;;17.50;99.90;;;19.32;100.00;100825.72;4977883;28;20031;-79
2023/07/17 04:35:42;;;;;;;6.95;3.80;;;17.60;99.90;;;19.38;100.00;100828.25;5000772;28;20041;-79
2023/07/17 04:38:08;;;;;;;8.05;4.28;;;17.70;99.90;;;19.56;100.00;100826.06;4984731;28;20042;-79
2023/07/17 04:40:34;;;;;;;7.00;3.92;;;17.80;99.90;;;19.63;100.00;100820.25;4978586;28;20034;-79
2023/07/17 04:43:01;;;;;;;8.23;3.97;;;17.90;99.90;;;19.53;100.00;100815.53;4969626;28;20042;-78
2023/07/17 04:45:28;;;;;;;7.72;3.88;;;17.90;99.90;;;19.53;100.00;100821.06;4987531;28;20094;-77
2023/07/17 04:47:55;;;;;;;6.43;3.75;;;18.00;99.90;;;19.50;100.00;100810.56;4984910;28;20038;-78
2023/07/17 04:50:28;;;;;;;8.00;3.97;;;18.00;99.90;;;19.49;100.00;100820.78;4988608;28;20145;-78
2023/07/17 04:52:55;;;;;;;8.40;4.30;;;18.00;99.90;;;19.47;100.00;100836.00;4988204;28;20092;-78
2023/07/17 04:55:22;;;;;;;9.43;4.18;;;17.90;99.90;;;19.33;100.00;100833.72;4989529;28;20030;-78
2023/07/17 04:57:49;;;;;;;6.07;3.67;;;17.70;99.90;;;19.30;100.00;100827.94;4961077;28;20137;-79
2023/07/17 05:00:16;;;;;;;9.60;4.07;;;17.50;99.90;;;19.22;100.00;100849.44;5002972;28;20038;-81
2023/07/17 05:02:43;;;;;;;8.27;4.05;;;17.50;99.90;;;19.17;100.00;100835.63;4985351;28;20040;-81
2023/07/17 05:05:09;;;;;;;7.35;4.30;;;17.40;99.90;;;19.16;100.00;100830.38;5003576;28;20038;-80
2023/07/17 05:07:35;;;;;;;8.45;4.40;;;17.40;99.90;;;19.24;100.00;100838.13;4986538;28;20050;-81
2023/07/17 05:10:03;;;;;;;6.70;3.88;;;17.50;99.90;;;19.27;100.00;100829.28;4985080;28;20034;-82
2023/07/17 05:12:29;;;;;;;;;;;17.60;99.90;;;19.34;100.00;100821.56;4984951;28;20359;-80
2023/07/17 05:14:55;;;;;;;7.32;3.70;;;17.60;99.90;;;19.28;100.00;100819.91;4982063;28;20012;-80
2023/07/17 05:17:21;;;;;;;11.25;4.18;;;17.70;99.90;;;19.48;100.00;100835.72;4978019;28;20031;-86
2023/07/17 05:19:47;;;;;;;7.28;4.10;;;17.80;99.90;;;19.67;100.00;100829.69;4994583;28;20513;-83
2023/07/17 05:22:13;;;;;;;7.00;4.03;;;17.80;99.90;;;19.54;100.00;100834.66;4978689;28;22284;-82
2023/07/17 05:24:40;;;;;;;13.65;4.90;;;17.80;99.90;;;19.67;100.00;100832.44;4981990;28;20074;-80
2023/07/17 05:27:06;;;;;;;14.25;4.88;;;17.80;99.90;;;19.58;100.00;100828.56;4978126;28;20391;-79
2023/07/17 05:29:32;;;;;;;10.65;4.63;;;17.80;99.90;;;19.72;100.00;100828.88;4971086;28;20402;-79
2023/07/17 05:31:59;;;;;;;15.25;5.07;;;17.80;99.90;;;19.76;100.00;100822.53;4982792;28;20534;-78
2023/07/17 05:34:24;;;;;;;12.02;5.20;;;17.90;99.90;;;19.74;100.00;100818.34;4984503;28;20107;-78
2023/07/17 05:36:50;;;;;;;10.57;4.22;;;18.10;99.90;;;19.87;100.00;100820.56;5000949;28;20046;-80
2023/07/17 05:39:16;;;;;;;9.73;4.10;;;18.10;99.90;;;20.03;100.00;100817.84;4983065;28;20034;-79
2023/07/17 05:41:43;;;;;;;9.82;4.63;;;18.30;99.90;;;20.00;100.00;100804.56;5002447;28;20034;-79
2023/07/17 05:44:08;;;;;;;9.70;4.13;;;18.40;99.90;;;20.07;100.00;100816.19;4987613;28;20675;-79
2023/07/17 05:46:34;;;;;;;8.45;3.97;;;18.40;99.90;;;19.86;100.00;100824.44;4989238;28;20053;-79
2023/07/17 05:49:00;;;;;;;9.35;4.28;;;18.40;99.90;;;19.87;100.00;100828.06;4987094;28;20041;-79
2023/07/17 05:51:26;;;;;;;11.88;3.92;;;18.40;99.90;;;19.85;100.00;100831.09;4990099;28;20092;-78
2023/07/17 05:53:52;;;;;;;10.43;3.97;;;18.40;99.90;;;19.86;100.00;100832.75;4989279;28;20027;-79
2023/07/17 05:56:18;;;;;;;15.80;4.68;;;18.40;99.90;;;19.84;100.00;100832.19;5004144;28;20065;-79
2023/07/17 05:58:44;;;;;;;8.93;4.03;;;18.40;99.90;;;20.05;100.00;100837.78;4985674;28;20062;-77
2023/07/17 06:01:10;;;;;;;10.40;3.80;;;18.40;99.90;;;20.06;100.00;100836.66;4992216;28;20485;-77
2023/07/17 06:03:37;;;;;;;5.82;3.80;;;18.50;99.90;;;20.11;100.00;100836.66;4991117;28;20045;-80
2023/07/17 06:06:03;;;;;;;6.47;3.72;;;18.50;99.90;;;20.17;100.00;100838.34;4977669;28;20470;-87
2023/07/17 06:08:29;;;;;;;6.53;3.80;;;18.60;99.90;;;20.21;100.00;100849.69;4992236;28;20027;-84
2023/07/17 06:10:54;;;;;;;6.90;3.33;;;18.60;99.90;;;20.23;100.00;100850.25;4983349;28;20498;-80
2023/07/17 06:13:20;;;;;;;5.45;3.00;;;18.70;99.90;;;20.36;100.00;100851.63;4986387;28;20039;-78
2023/07/17 06:15:46;;;;;;;6.38;3.47;;;18.80;99.90;;;20.58;96.86;100848.56;4985078;28;20422;-81
2023/07/17 06:18:12;;;;;;;6.57;3.38;;;18.90;99.90;;;20.53;98.82;100852.16;4983369;28;20039;-78
2023/07/17 06:20:39;;;;;;;8.88;3.75;;;19.10;99.90;;;20.65;97.90;100856.56;4986484;28;20097;-79
2023/07/17 06:23:04;;;;;;;6.05;3.20;;;19.10;99.90;;;20.65;96.45;100851.88;4986623;28;20470;-81
2023/07/17 06:25:30;;;;;;;8.60;3.45;;;19.20;99.90;;;20.82;95.36;100857.13;4995051;28;20030;-81
2023/07/17 06:27:56;;;;;;;5.82;3.63;;;19.30;99.90;;;21.10;92.86;100848.47;5001164;28;20027;-80
2023/07/17 06:30:21;;;;;;;7.93;3.45;;;19.50;99.90;;;20.90;93.30;100854.88;5002511;28;20122;-81
2023/07/17 06:32:47;;;;;;;7.72;3.47;;;19.40;99.90;;;20.86;91.37;100851.03;4988655;28;20066;-82
2023/07/17 06:35:13;;;;;;;6.90;3.53;;;19.50;99.90;;;21.03;91.06;100857.06;4986016;28;20562;-83
2023/07/17 06:37:39;;;;;;;6.68;3.60;;;19.50;99.90;;;20.58;93.08;100862.44;4986607;28;20117;-82
2023/07/17 06:40:05;;;;;;;8.20;3.78;;;19.40;99.90;;;20.70;93.91;100871.25;4986772;28;20034;-83
2023/07/17 06:42:33;;;;;;;8.20;3.47;;;19.40;99.90;;;20.39;96.61;100864.91;4983363;28;20145;-82
2023/07/17 06:44:59;;;;;;;9.38;3.28;;;19.30;99.90;;;20.66;95.24;100852.69;4984379;28;20474;-84
2023/07/17 06:47:25;;;;;;;7.03;3.20;;;19.40;99.90;;;20.99;92.36;100858.75;4984204;28;20043;-81
2023/07/17 06:49:51;;;;;;;8.30;3.35;;;19.50;99.90;;;20.99;93.89;100853.22;4983633;28;20093;-82
2023/07/17 06:52:17;;;;;;;8.18;3.67;;;19.60;99.90;;;21.21;87.92;100860.31;4985401;28;20220;-84
2023/07/17 06:54:43;;;;;;;7.10;3.58;;;19.70;99.90;;;21.00;90.99;100867.91;5002297;28;20038;-85
2023/07/17 06:57:09;;;;;;;6.97;2.90;;;19.70;99.90;;;20.74;91.33;100868.78;4984257;28;20061;-82
2023/07/17 06:59:34;;;;;;;6.95;3.22;;;19.60;99.90;;;20.93;92.22;100863.47;4991456;28;20494;-82
2023/07/17 07:02:00;;;;;;;5.90;3.30;;;19.50;99.90;;;20.54;93.15;100866.84;4979078;28;20038;-79
2023/07/17 07:04:26;;;;;;;8.00;3.60;;;19.40;99.90;;;20.37;96.90;100865.22;4977271;28;20085;-82
2023/07/17 07:06:52;;;;;;;6.97;3.35;;;19.20;99.90;;;20.24;96.00;100869.38;4989950;28;20109;-84
2023/07/17 07:09:18;;;;;;;6.97;3.30;;;19.00;99.90;;;20.32;97.79;100872.69;4981907;28;20082;-84
2023/07/17 07:11:44;;;;;;;7.10;3.15;;;18.90;99.90;;;20.12;97.51;100871.56;4978419;28;20510;-83
2023/07/17 07:14:10;;;;;;;5.70;3.63;;;18.80;99.90;;;20.11;99.46;100878.22;4981896;28;20038;-83
2023/07/17 07:16:35;;;;;;;7.13;2.88;;;18.70;99.90;;;20.19;99.10;100877.69;4980989;28;20039;-82
2023/07/17 07:19:01;;;;;;;7.40;3.40;;;18.70;99.90;;;19.99;100.00;100875.69;4984647;28;20042;-82
2023/07/17 07:21:27;;;;;;;7.50;3.08;;;18.60;99.90;;;20.01;99.44;100892.06;4988360;28;20038;-83
2023/07/17 07:23:52;;;;;;;6.65;3.00;;;18.50;99.90;;;20.12;99.00;100894.56;4991458;28;20034;-81
2023/07/17 07:26:18;;;;;;;5.68;2.83;;;18.60;99.90;;;20.33;96.69;100891.81;4990594;28;20495;-84
2023/07/17 07:28:44;;;;;;;7.88;2.90;;;18.90;99.90;;;20.55;94.67;100883.19;4991392;28;20034;-82
2023/07/17 07:31:09;;;;;;;7.30;3.10;;;19.10;99.90;;;20.48;92.90;100888.19;4994596;28;20067;-83
2023/07/17 07:33:36;;;;;;;7.50;3.25;;;19.20;99.90;;;20.25;94.96;100892.34;4990457;28;20043;-83
2023/07/17 07:36:02;;;;;;;6.18;3.10;;;19.00;99.90;;;20.09;96.53;100899.81;4989706;28;20042;-79
2023/07/17 07:38:28;;;;;;;8.57;2.72;;;18.90;99.90;;;20.20;97.12;100889.56;4992717;28;20072;-83
2023/07/17 07:40:54;;;;;;;6.30;2.95;;;18.80;99.90;;;20.11;97.71;100892.06;4981678;28;20054;-85
2023/07/17 07:43:20;;;;;;;7.65;2.92;;;18.80;99.90;;;20.25;100.00;100895.09;4985716;28;20063;-83
2023/07/17 07:45:45;;;;;;;6.18;2.80;;;19.00;99.90;;;20.73;96.00;100891.22;4979013;28;20051;-80
2023/07/17 07:48:11;;;;;;;7.13;2.63;;;19.30;99.90;;;21.08;91.15;100890.34;4974888;28;20031;-84
2023/07/17 07:50:37;;;;;;;6.30;2.67;;;19.70;99.90;;;21.63;88.22;100897.88;4988704;28;20042;-83
2023/07/17 07:53:03;;;;;;;6.80;2.80;;;20.10;99.90;;;21.80;81.78;100897.53;4987500;28;20045;-80
2023/07/17 07:55:29;;;;;;;7.10;2.60;;;20.40;99.90;;;21.73;81.81;100888.69;4978256;28;20038;-86
2023/07/17 07:57:55;;;;;;;4.82;2.13;;;20.60;99.90;;;21.75;79.02;100910.59;4979253;28;20077;-87
2023/07/17 08:00:20;;;;;;;6.28;2.38;;;20.60;99.90;;;22.24;77.27;100912.50;4990244;28;20490;-81
2023/07/17 08:02:46;;;;;;;5.05;2.28;;;20.80;99.90;;;22.18;72.08;100901.75;4990333;28;20030;-80
2023/07/17 08:05:12;;;;;;;5.68;2.60;;;20.90;99.90;;;22.31;74.35;100909.41;4984382;28;20435;-83
2023/07/17 08:07:38;;;;;;;5.03;2.20;;;21.10;99.90;;;22.59;73.44;100911.72;4994935;28;20046;-82
2023/07/17 08:10:04;;;;;;;5.32;2.13;;;21.30;99.90;;;22.48;67.82;100911.78;4994790;28;20038;-80
2023/07/17 08:12:31;;;;;;;4.78;2.20;;;21.30;99.90;;;22.59;68.62;100906.97;4991130;28;20085;-83
2023/07/17 08:14:56;;;;;;;4.55;2.20;;;21.30;99.90;;;22.91;67.37;100899.97;4990063;28;20050;-84
2023/07/17 08:17:22;;;;;;;4.35;2.10;;;21.50;99.90;;;22.02;70.95;100915.72;4982546;28;20042;-82
2023/07/17 08:19:48;;;;;;;5.13;2.50;;;21.70;99.90;;;23.41;60.53;100882.19;4980874;28;20043;-82
2023/07/17 08:22:14;;;;;;;4.95;2.30;;;21.90;99.90;;;23.28;63.07;100917.13;4989821;28;20140;-81
2023/07/17 08:24:40;;;;;;;6.22;2.33;;;;;;;23.26;59.55;100903.53;4986716;28;20046;-83
2023/07/17 08:27:06;;;;;;;5.22;2.25;;;21.90;99.90;;;22.29;60.80;100897.75;4990272;28;20062;-82
2023/07/17 08:29:32;;;;;;;5.43;2.10;;;21.80;99.70;;;22.78;61.18;100903.47;4985773;28;20073;-82
2023/07/17 08:31:58;;;;;;;6.72;2.85;;;21.70;99.90;;;23.25;59.29;100895.47;4987961;28;20393;-86
2023/07/17 08:34:23;;;;;;;6.68;2.03;;;22.00;99.90;;;23.46;56.60;100893.25;5004868;28;20049;-81
2023/07/17 08:36:50;;;;;;;5.68;2.15;;;22.20;99.30;;;23.28;52.60;100867.03;4989959;28;20037;-80
2023/07/17 08:39:15;;;;;;;5.32;2.10;;;22.20;97.10;;;23.61;54.11;100883.03;4989787;28;20138;-80
2023/07/17 08:41:46;;;;;;;3.63;1.92;;;22.30;98.10;;;23.71;52.31;100885.66;4983683;28;20050;-86
2023/07/17 08:44:16;;;;;;;7.75;2.08;;;22.40;97.40;;;23.17;51.32;100885.78;4989835;28;20049;-82
2023/07/17 08:46:43;;;;;;;4.55;1.73;;;22.40;96.20;;;23.62;48.74;100854.91;4979261;28;20510;-80
2023/07/17 08:49:12;;;;;;;4.60;2.13;;;22.40;95.30;;;23.76;48.33;100870.84;4982960;28;20041;-82
2023/07/17 08:51:38;;;;;;;4.75;2.00;;;;;;;24.17;46.59;100864.69;4975989;28;20562;-82
2023/07/17 08:54:04;;;;;;;5.13;2.30;;;22.60;95.20;;;23.63;45.76;100851.00;4999858;28;20041;-82
2023/07/17 08:56:30;;;;;;;5.30;2.03;;;22.80;93.20;;;24.13;46.30;100860.81;4985936;28;20124;-79
2023/07/17 08:58:56;;;;;;;5.63;2.03;;;22.80;93.70;;;24.15;46.29;100858.59;4993428;28;20042;-83
2023/07/17 09:01:21;;;;;;;5.68;2.22;;;22.90;93.50;;;24.05;45.72;100856.78;4988665;28;20041;-82
2023/07/17 09:03:51;;;;;;;5.55;2.03;;;22.90;93.00;;;24.00;46.32;100870.75;4985019;28;20038;-84
2023/07/17 09:06:24;;;;;;;4.68;2.00;;;22.80;93.30;;;24.47;45.25;100861.66;4982390;28;20039;-82
2023/07/17 09:08:51;;;;;;;5.53;1.92;;;23.00;93.30;;;24.45;44.22;100859.19;4985469;28;20394;-82
2023/07/17 09:11:19;;;;;;;5.00;2.05;;;;;;;24.74;43.78;100865.63;4980353;28;20050;-83
2023/07/17 09:13:47;;;;;;;4.65;2.08;;;;;;;24.86;43.62;100863.22;4988310;28;20050;-85
2023/07/17 09:16:18;;;;;;;5.10;2.33;;;;;;;24.51;43.51;100860.75;4981956;28;20038;-82
2023/07/17 09:18:45;;;;;;;6.82;2.10;;;;;;;24.62;44.80;100882.88;4981375;28;20593;-84
2023/07/17 09:21:14;;;;;;;5.40;2.20;;;;;;;25.32;42.86;100864.22;4975690;28;20506;-84
2023/07/17 09:23:46;;;;;;;8.43;2.20;;;;;;;24.64;42.81;100856.34;4985205;28;20043;-83
2023/07/17 09:26:17;;;;;;;5.35;2.20;;;;;;;23.32;45.94;100901.50;4993831;28;20070;-84
2023/07/17 09:28:55;;;;;;;3.95;1.67;;;23.10;92.60;;;22.91;47.48;100908.31;4998011;28;20042;-84
2023/07/17 09:31:32;;;;;;;4.43;1.92;;;23.20;90.70;;;23.24;45.42;100877.09;4987777;28;20636;-81
2023/07/17 09:34:00;;;;;;;4.13;1.95;;;;;;;24.04;47.34;100891.38;4988762;28;20034;-83
2023/07/17 09:36:27;;;;;;;5.75;2.53;;;;;;;24.07;45.30;100876.81;4986613;28;20459;-84
2023/07/17 09:38:55;;;;;;;7.43;2.10;;;;;;;24.10;43.55;100864.22;4984671;28;20042;-80
2023/07/17 09:41:26;;;;;;;5.65;2.30;;;;;;;24.13;42.59;100856.09;4986473;28;20041;-83
2023/07/17 09:44:03;;;;;;;6.28;2.20;;;;;;;24.86;42.36;100863.22;4980481;28;20471;-79
2023/07/17 09:46:32;;;;;;;4.37;2.07;;;;;;;25.42;41.14;100857.59;4989468;28;20055;-83
2023/07/17 09:48:59;;;;;;;5.43;2.30;;;;;;;25.02;41.38;100854.53;4982232;28;20055;-82
2023/07/17 09:51:25;;;;;;;5.75;2.45;;;;;;;25.02;40.75;100860.94;4981351;28;20126;-85
2023/07/17 09:53:52;;;;;;;4.88;1.85;;;;;;;24.97;40.26;100856.28;4991047;28;20478;-82
2023/07/17 09:56:20;;;;;;;5.68;2.10;;;;;;;24.94;40.56;100867.25;4993614;28;20041;-80
2023/07/17 09:58:53;;;;;;;6.05;2.13;;;;;;;25.39;40.03;100858.22;4985781;28;20053;-81
2023/07/17 10:01:25;;;;;;;4.82;2.30;;;;;;;24.65;41.24;100873.88;4991778;28;20088;-81
2023/07/17 10:03:53;;;;;;;5.30;1.98;;;;;;;25.07;40.97;100865.59;4976364;28;20181;-78
2023/07/17 10:06:20;;;;;;;26.35;3.40;;;;;;;25.36;40.81;100864.44;4986682;28;20034;-83
2023/07/17 10:08:49;;;;;;;6.18;2.45;;;;;;;25.23;38.74;100839.00;4990852;28;20494;-83
2023/07/17 10:11:17;;;;;;;6.90;2.33;;;;;;;25.38;40.31;100865.75;4979388;28;20402;-80
2023/07/17 10:13:49;;;;;;;4.10;2.10;;;;;;;25.59;39.00;100856.97;4975287;28;20042;-80